• Join FlightAware (Why Join?)
  • Login
  • US Flag 
10:36AM EST


 

Airport Tracker/Info


-or-


 

Live Flight TrackerFlight Track Log ✈ UAL33 ✈ 24-May-2013 ✈ KORD - KIAH

Flight Track Log - Related Links

Times and Time Zones

All times are in EDT time to prevent confusion due to time zone crossing. See the UAL33 flight status page for this flight to view local times or setup timezone preferences in your user account.

Time Position Orientation Groundspeed Altitude Reporting Facility
EDT Latitude Longitude Course Direction KTS MPH feet Rate Location/Type
09:58PM 41.9810 -87.9120 11° North 20 23  Level FlightAware
09:59PM 41.9810 -87.9130 270° West 10 12 120 Level FlightAware
09:59PM 41.9820 -87.9140 323° Northwest 27 31 120 Level FlightAware
10:00PM 41.9820 -87.9150 270° West 26 30 120 Level FlightAware
10:01PM 41.9830 -87.9170 304° West 14 16 120 Level FlightAware
10:03PM 41.8115 -88.0438 200° South  Level Estimated
10:04PM 41.7257 -88.1069 187° South  Level Estimated
10:05PM 41.6399 -88.1699 189° South  Level Estimated
10:06PM 41.5529 -88.1100 153° Southeast  Level FlightAware Approximate
10:07PM 41.4673 -88.1735 197° South  Level Estimated
10:07PM 41.9840 -87.9180 360° North 19 22  Level FlightAware
10:08PM 41.9840 -87.9160 90° East 49 56 1,320 Level FlightAware
10:08PM 41.9840 -87.9130 90° East 88 101 2,220 Level FlightAware
10:08PM 41.9830 -87.8800 92° East 171 197 1,500 2,940 Climbing FlightAware
10:09PM 41.9720 -87.8660 137° Southeast 189 217 2,500 2,880 Climbing FlightAware
10:09PM 41.9620 -87.8630 167° South 210 242 2,900 2,340 Climbing FlightAware
10:09PM 41.9320 -87.8620 179° South 253 291 4,100 2,700 Climbing FlightAware
10:10PM 41.9210 -87.8610 176° South 261 300 4,600 2,400 Climbing FlightAware
10:10PM 41.8950 -87.8620 182° South 271 312 6,100 3,720 Climbing FlightAware
10:11PM 41.7900 -87.8960 194° South 315 362 11,000 4,440 Climbing FlightAware
10:12PM 41.7270 -87.9180 195° South 323 372 13,800 3,000 Climbing FlightAware
10:13PM 41.6670 -87.9390 195° South 363 418 15,100 2,400 Climbing FlightAware
10:13PM 41.5960 -87.9640 195° South 388 447 17,100 2,880 Climbing FlightAware
10:14PM 41.5160 -87.9920 195° South 406 467 19,300 2,820 Climbing FlightAware
10:15PM 41.4530 -88.0140 195° South 418 481 20,800 2,460 Climbing FlightAware
10:15PM 41.3580 -88.0460 194° South 430 495 22,800 1,980 Climbing FlightAware
10:16PM 41.2800 -88.0730 195° South 439 505 23,800 1,920 Climbing FlightAware
10:17PM 41.1910 -88.1010 193° South 454 522 25,500 2,100 Climbing FlightAware
10:18PM 41.1070 -88.1240 192° South 473 544 26,800 2,040 Climbing FlightAware
10:18PM 41.0130 -88.1510 192° South 482 555 28,400 1,920 Climbing FlightAware
10:19PM 40.9230 -88.1770 192° South 497 572 29,500 1,680 Climbing FlightAware
10:20PM 40.8280 -88.2220 200° South 500 575 30,800 1,560 Climbing FlightAware
10:20PM 40.7710 -88.2620 208° Southwest 499 574 31,700 1,800 Climbing FlightAware
10:21PM 40.6580 -88.3480 210° Southwest 505 581 33,400 2,040 Climbing FlightAware
10:22PM 40.5740 -88.4120 210° Southwest 508 585 34,600 1,500 Climbing FlightAware
10:22PM 40.4890 -88.4770 210° Southwest 513 590 35,600 1,620 Climbing FlightAware
10:23PM 40.4050 -88.5410 210° Southwest 505 581 36,900 1,860 Climbing FlightAware
10:24PM 40.3140 -88.6060 209° Southwest 499 574 38,300 1,680 Climbing FlightAware
10:25PM 40.2340 -88.6600 207° Southwest 494 568 39,300 960 Climbing FlightAware
10:26PM 40.1050 -88.7480 208° Southwest 489 563 40,000 360 Climbing FlightAware
10:26PM 40.0240 -88.8040 208° Southwest 485 558 40,000  Level FlightAware
10:27PM 39.9350 -88.8650 208° Southwest 481 554 40,000  Level FlightAware
10:28PM 39.8650 -88.9130 208° Southwest 481 554 40,000  Level FlightAware
10:28PM 39.7710 -88.9770 208° Southwest 480 552 40,000  Level FlightAware
10:29PM 39.6910 -89.0310 207° Southwest 477 549 40,000  Level FlightAware
10:30PM 39.6140 -89.0840 208° Southwest 476 548 40,000  Level FlightAware
10:30PM 39.5290 -89.1410 207° Southwest 478 550 40,000  Level FlightAware
10:31PM 39.4450 -89.1970 207° Southwest 476 548 40,000  Level FlightAware
10:32PM 39.3660 -89.2510 208° Southwest 472 543 40,000  Level FlightAware
10:33PM 39.2800 -89.3080 207° Southwest 471 542 40,000  Level FlightAware
10:33PM 39.2010 -89.3610 207° Southwest 470 541 40,000  Level FlightAware
10:34PM 39.1320 -89.4070 207° Southwest 466 536 40,000  Level FlightAware
10:35PM 39.0380 -89.4700 208° Southwest 465 535 40,000  Level FlightAware
10:36PM 38.9540 -89.5250 207° Southwest 465 535 40,000  Level FlightAware
10:36PM 38.8560 -89.5900 207° Southwest 464 534 40,000  Level FlightAware
10:37PM 38.7680 -89.6480 207° Southwest 463 533 40,000  Level FlightAware
10:38PM 38.6920 -89.6980 207° Southwest 465 535 40,000  Level FlightAware
10:38PM 38.6240 -89.7430 207° Southwest 465 535 40,000  Level FlightAware
10:39PM 38.5370 -89.8000 207° Southwest 464 534 40,000  Level FlightAware
10:40PM 38.4480 -89.8580 207° Southwest 461 531 40,000  Level FlightAware
10:41PM 38.2700 -89.9730 207° Southwest 463 533 40,000  Level FlightAware
10:42PM 38.1870 -90.0270 207° Southwest 463 533 40,000  Level FlightAware
10:43PM 38.1210 -90.0700 207° Southwest 463 533 40,000  Level FlightAware
10:43PM 38.0370 -90.1240 207° Southwest 463 533 40,000  Level FlightAware
10:44PM 37.9450 -90.1830 207° Southwest 462 532 40,000  Level FlightAware
10:45PM 37.8720 -90.2290 206° Southwest 462 532 40,000  Level FlightAware
10:46PM 37.8140 -90.2670 207° Southwest 462 532 40,000  Level FlightAware
10:46PM 37.7350 -90.3180 207° Southwest 462 532 40,000  Level FlightAware
10:47PM 37.6750 -90.3570 207° Southwest 462 532 40,000  Level FlightAware
10:48PM 37.6000 -90.4050 207° Southwest 462 532 40,000  Level FlightAware
10:48PM 37.5420 -90.4420 207° Southwest 462 532 40,000  Level FlightAware
10:49PM 37.3890 -90.5360 206° Southwest 448 516 40,000  Level FlightAware
10:50PM 37.2860 -90.6010 207° Southwest 446 513 40,000  Level FlightAware
10:51PM 37.2130 -90.6470 207° Southwest 444 511 40,000  Level FlightAware
10:51PM 37.1320 -90.6980 207° Southwest 443 510 40,000  Level FlightAware
10:52PM 37.0570 -90.7450 207° Southwest 441 507 40,000  Level FlightAware
10:53PM 36.9800 -90.7930 206° Southwest 441 507 40,000  Level FlightAware
10:54PM 36.9040 -90.8400 206° Southwest 443 510 40,000  Level FlightAware
10:54PM 36.8230 -90.8900 206° Southwest 446 513 40,000  Level FlightAware
10:55PM 36.7540 -90.9330 207° Southwest 446 513 40,000  Level FlightAware
10:56PM 36.6680 -90.9860 206° Southwest 449 517 40,000  Level FlightAware
10:56PM 36.5940 -91.0320 207° Southwest 450 518 40,000  Level FlightAware
10:57PM 36.5060 -91.0860 206° Southwest 449 517 40,000  Level FlightAware
10:58PM 36.4310 -91.1320 206° Southwest 450 518 40,000  Level FlightAware
10:58PM 36.3570 -91.1770 206° Southwest 450 518 40,000  Level FlightAware
10:59PM 36.2780 -91.2250 206° Southwest 449 517 40,000  Level FlightAware
11:00PM 36.2310 -91.2540 206° Southwest 448 516 40,000  Level FlightAware
11:00PM 36.1450 -91.3070 206° Southwest 449 517 40,000  Level FlightAware
11:01PM 36.0520 -91.3630 206° Southwest 451 519 40,000  Level FlightAware
11:02PM 35.9650 -91.4160 206° Southwest 449 517 40,000  Level FlightAware
11:03PM 35.8910 -91.4600 206° Southwest 447 514 40,000  Level FlightAware
11:03PM 35.8130 -91.5070 206° Southwest 449 517 40,000  Level FlightAware
11:04PM 35.7370 -91.5530 206° Southwest 448 516 40,000  Level FlightAware
11:05PM 35.6570 -91.6010 206° Southwest 448 516 40,000  Level FlightAware
11:05PM 35.5870 -91.6430 206° Southwest 448 516 40,000  Level FlightAware
11:06PM 35.5020 -91.6940 206° Southwest 447 514 40,000  Level FlightAware
11:07PM 35.4400 -91.7300 205° Southwest 448 516 40,000  Level FlightAware
11:08PM 35.3610 -91.7750 205° Southwest 448 516 40,000  Level FlightAware
11:08PM 35.3040 -91.8080 205° Southwest 448 516 40,000  Level FlightAware
11:09PM 35.1870 -91.8810 207° Southwest 448 516 40,000  Level FlightAware
11:10PM 35.1190 -91.9200 205° Southwest 447 514 40,000  Level FlightAware
11:10PM 35.1000 -91.9310 205° Southwest 447 514 40,000  Level FlightAware
11:11PM 34.9150 -92.0040 198° South 456 525 40,000  Level FlightAware
11:12PM 34.8330 -92.0360 198° South 456 525 40,000  Level FlightAware
11:13PM 34.7700 -92.0610 198° South 456 525 40,000  Level FlightAware
11:14PM 34.6890 -92.0930 198° South 456 525 40,000  Level FlightAware
11:14PM 34.6250 -92.1180 198° South 456 525 40,000  Level FlightAware
11:15PM 34.5400 -92.1520 198° South 456 525 40,000  Level FlightAware
11:16PM 34.4790 -92.1760 198° South 456 525 40,000  Level FlightAware
11:17PM 34.3950 -92.2090 198° South 456 525 40,000  Level FlightAware
11:17PM 34.3340 -92.2330 198° South 456 525 40,000  Level FlightAware
11:18PM 34.2710 -92.2580 198° South 456 525 40,000  Level FlightAware
11:19PM 34.1870 -92.2910 198° South 456 525 40,000  Level FlightAware
11:19PM 34.1260 -92.3150 198° South 456 525 40,000  Level FlightAware
11:20PM 33.7775 -92.2586 198° South 442 509 40,000  Level Fort Worth Center
11:21PM 33.6492 -92.2861 190° South 462 532 40,000  Level Fort Worth Center
11:22PM 33.5231 -92.3158 191° South 467 537 40,000  Level Fort Worth Center
11:23PM 33.3969 -92.3456 191° South 467 537 40,000  Level Fort Worth Center
11:24PM 33.2689 -92.3753 191° South 467 537 40,000  Level Fort Worth Center
11:25PM 33.1469 -92.4044 191° South 467 537 40,000  Level Fort Worth Center
11:26PM 33.0186 -92.4314 190° South 472 543 40,000  Level Fort Worth Center
11:27PM 32.8925 -92.4633 192° South 465 535 40,000 -60 Level Fort Worth Center
11:30PM 32.6000 -92.5311 191° South 461 531 39,900 -60 Descending Houston Center
11:31PM 32.4739 -92.5617 192° South 461 531 39,900  Level Houston Center
11:32PM 32.3472 -92.5911 191° South 462 532 39,900  Level Houston Center
11:33PM 32.2200 -92.6194 191° South 464 534 39,900  Level Houston Center
11:34PM 32.0931 -92.6494 191° South 464 534 39,900  Level Houston Center
11:35PM 31.9661 -92.6792 191° South 464 534 40,000 -360 Climbing Houston Center
11:36PM 31.8406 -92.7083 191° South 460 529 39,200 -1,500 Descending Houston Center
11:37PM 31.6883 -92.7500 193° South 467 537 37,000 -1,920 Descending Houston Center
11:38PM 31.5589 -92.7897 195° South 477 549 35,300 -1,380 Descending Houston Center
11:39PM 31.4300 -92.8275 194° South 479 551 34,300 -720 Descending Houston Center
11:40PM 31.3075 -92.8775 199° South 470 541 33,900 -300 Descending Houston Center
11:41PM 31.2211 -92.9839 226° Southwest 453 521 33,800 -600 Descending Houston Center
11:42PM 31.1378 -93.0936 228° Southwest 452 520 32,700 -1,020 Descending Houston Center
11:43PM 31.0581 -93.2031 230° Southwest 447 514 31,800 -900 Descending Houston Center
11:44PM 30.9794 -93.3119 230° Southwest 443 510 30,900 -1,260 Descending Houston Center
11:45PM 30.9008 -93.4189 229° Southwest 439 505 29,300 -1,740 Descending Houston Center
11:56PM 30.1820 -94.5220 229° Southwest 333 383 10,100 -1,620 Descending FlightAware
11:57PM 30.1550 -94.5850 244° Southwest 334 384 9,800 -240 Descending FlightAware
11:58PM 30.1330 -94.6330 243° Southwest 334 384 9,800  Level FlightAware
11:58PM 30.1130 -94.6790 243° Southwest 334 384 9,800 -1,680 Level FlightAware
12:00AM 30.0360 -94.8630 244° Southwest 275 316 5,200 -1,860 Descending FlightAware
12:01AM 30.0080 -94.9270 247° West 270 311 4,300 -1,020 Descending FlightAware
12:02AM 29.9890 -95.0010 256° West 260 299 3,500 -720 Descending FlightAware
12:03AM 29.9780 -95.1050 270° West 233 268 2,800 -660 Descending FlightAware
12:04AM 29.9780 -95.1700 270° West 210 242 2,100 -840 Descending FlightAware
12:05AM 29.9780 -95.2130 270° West 170 196 1,400 -900 Descending FlightAware
12:05AM 29.9780 -95.2380 270° West 151 174 1,000 -480 Descending FlightAware
12:06AM 29.9780 -95.2560 270° West 151 174 1,000  Level FlightAware